Bismarck, ND (58501)

4:18 AM CDT on May 29, 2015 (GMT -0500)
Centerville Lane | | Change Station
CLOSE
Current Station
Personal Weather Station
Location: Bismarck, ND
Elevation: 1811 ft
Nearby Weather Stations

Elev 1811 ft 46.86 °N, 100.75 °W | Updated 1 second ago

Overcast
Overcast
50.4 °F
Feels Like 50.4 °F
N
4.7
Wind Variable Wind from NNE
Gusts 7.0 mph

Today
High -- | Low -- °F
--% Chance of Precip.
Yesterday
High -- | Low -- °F
Precip. -- in
5:54 AM 9:26 PM
Waxing Gibbous, 82% visible
Pressure 30.04 in
Visibility 10.0 miles
Clouds Overcast 1100 ft
Dew Point 47 °F
Humidity 87%
Rainfall 0.00 in
Snow Depth Not available.
UV 0 out of 12
Pollen 6.40 out of 12
Air Quality Not available.
Flu Activity Sporadic
METAR KBIS 290852Z AUTO 35020G27KT 10SM OVC011 11/08 A3004 RMK AO2 PK WND 36027/0852 SLP171 T01110083 51027

More Conditions Fewer Conditions

Pressure 30.04 in
Visibility 10.0 miles
Clouds Overcast 1100 ft
Dew Point 47 °F
Humidity 87%
Rainfall 0.00 in
Snow Depth Not available.
UV 0 out of 12
Pollen 6.40 out of 12
Air Quality Not available.
Flu Activity Sporadic
METAR KBIS 290852Z AUTO 35020G27KT 10SM OVC011 11/08 A3004 RMK AO2 PK WND 36027/0852 SLP171 T01110083 51027

More Conditions Fewer Conditions

10-Day Weather Forecast

Almanac

Astronomy

May. 29, 2015 Rise Set
Actual Time
Civil Twilight
Nautical Twilight
Astronomical Twilight
Moon
Length of Visible Light
Length of Day
Tomorrow will be .
, % of the Moon is Illuminated

Today's Extremes

State Highs State Lows

Community

WunderPhotos

Upload Photos

1,825,221 photos uploaded!

WunderBlogs® & News

Nearby

Air Quality

  Air Quality AQ Index Pollutant
Not available.

Snow Depth

Station Depth Elevation

Earthquake Activity

City Distance Mag. Time & Date
Minimum magnitude displayed is 2.5.

Coastal Water Temperatures

Place Temperature

Stations

Nearby Weather Stations

Station Location Temp. Windchill Dew Point Humidity Wind Precip. Elev Updated Type